sensor_id;sensor_type;location;lat;lon;timestamp;P1;durP1;ratioP1;P2;durP2;ratioP2
63444;SDS011;49573;47.682;9.170;2022-10-04T00:00:23;10.13;;;4.20;;
63444;SDS011;49573;47.682;9.170;2022-10-04T00:03:16;10.35;;;4.15;;
63444;SDS011;49573;47.682;9.170;2022-10-04T00:06:05;11.98;;;4.25;;
63444;SDS011;49573;47.682;9.170;2022-10-04T00:08:57;6.20;;;4.43;;
63444;SDS011;49573;47.682;9.170;2022-10-04T00:11:45;7.18;;;4.22;;
63444;SDS011;49573;47.682;9.170;2022-10-04T00:14:34;8.15;;;3.97;;
63444;SDS011;49573;47.682;9.170;2022-10-04T00:17:23;7.47;;;3.88;;
63444;SDS011;49573;47.682;9.170;2022-10-04T00:23:43;7.95;;;4.20;;
63444;SDS011;49573;47.682;9.170;2022-10-04T00:33:00;5.43;;;3.70;;
63444;SDS011;49573;47.682;9.170;2022-10-04T00:35:48;6.15;;;3.88;;
63444;SDS011;49573;47.682;9.170;2022-10-04T00:38:34;12.15;;;5.03;;
63444;SDS011;49573;47.682;9.170;2022-10-04T00:41:22;10.57;;;4.18;;
63444;SDS011;49573;47.682;9.170;2022-10-04T00:44:09;7.13;;;4.20;;
63444;SDS011;49573;47.682;9.170;2022-10-04T00:47:03;7.57;;;3.55;;
63444;SDS011;49573;47.682;9.170;2022-10-04T00:50:09;8.07;;;4.43;;
63444;SDS011;49573;47.682;9.170;2022-10-04T00:53:02;8.15;;;4.10;;
63444;SDS011;49573;47.682;9.170;2022-10-04T00:55:57;5.68;;;3.92;;
63444;SDS011;49573;47.682;9.170;2022-10-04T00:58:59;11.15;;;4.15;;
63444;SDS011;49573;47.682;9.170;2022-10-04T01:01:59;8.18;;;5.25;;
63444;SDS011;49573;47.682;9.170;2022-10-04T01:04:50;9.10;;;4.03;;
63444;SDS011;49573;47.682;9.170;2022-10-04T01:07:41;8.73;;;3.97;;
63444;SDS011;49573;47.682;9.170;2022-10-04T01:10:30;8.68;;;4.10;;
63444;SDS011;49573;47.682;9.170;2022-10-04T01:13:21;9.00;;;4.43;;
63444;SDS011;49573;47.682;9.170;2022-10-04T01:16:15;10.20;;;4.00;;
63444;SDS011;49573;47.682;9.170;2022-10-04T01:19:24;8.02;;;4.18;;
63444;SDS011;49573;47.682;9.170;2022-10-04T01:22:28;6.25;;;4.35;;
63444;SDS011;49573;47.682;9.170;2022-10-04T01:28:29;5.93;;;3.83;;
63444;SDS011;49573;47.682;9.170;2022-10-04T01:31:15;7.55;;;4.30;;
63444;SDS011;49573;47.682;9.170;2022-10-04T01:34:02;7.30;;;4.10;;
63444;SDS011;49573;47.682;9.170;2022-10-04T01:36:50;7.88;;;3.70;;
63444;SDS011;49573;47.682;9.170;2022-10-04T01:39:40;7.70;;;3.80;;
63444;SDS011;49573;47.682;9.170;2022-10-04T01:42:28;7.07;;;4.82;;
63444;SDS011;49573;47.682;9.170;2022-10-04T01:45:20;9.55;;;4.25;;
63444;SDS011;49573;47.682;9.170;2022-10-04T01:48:13;6.68;;;4.30;;
63444;SDS011;49573;47.682;9.170;2022-10-04T01:51:02;5.72;;;3.60;;
63444;SDS011;49573;47.682;9.170;2022-10-04T01:53:53;8.07;;;4.00;;
63444;SDS011;49573;47.682;9.170;2022-10-04T01:56:47;9.57;;;4.53;;
63444;SDS011;49573;47.682;9.170;2022-10-04T01:59:38;8.65;;;5.05;;
63444;SDS011;49573;47.682;9.170;2022-10-04T02:02:29;12.57;;;4.30;;
63444;SDS011;49573;47.682;9.170;2022-10-04T02:05:23;8.30;;;4.50;;
63444;SDS011;49573;47.682;9.170;2022-10-04T02:08:14;6.68;;;3.85;;
63444;SDS011;49573;47.682;9.170;2022-10-04T02:11:03;6.95;;;4.35;;
63444;SDS011;49573;47.682;9.170;2022-10-04T02:13:52;7.82;;;4.00;;
63444;SDS011;49573;47.682;9.170;2022-10-04T02:16:40;6.80;;;4.05;;
63444;SDS011;49573;47.682;9.170;2022-10-04T02:19:31;6.70;;;4.15;;
63444;SDS011;49573;47.682;9.170;2022-10-04T02:22:19;7.13;;;4.50;;
63444;SDS011;49573;47.682;9.170;2022-10-04T02:25:09;7.25;;;4.00;;
63444;SDS011;49573;47.682;9.170;2022-10-04T02:27:56;9.68;;;4.40;;
63444;SDS011;49573;47.682;9.170;2022-10-04T02:30:44;6.93;;;3.93;;
63444;SDS011;49573;47.682;9.170;2022-10-04T02:33:54;9.77;;;4.30;;
63444;SDS011;49573;47.682;9.170;2022-10-04T02:36:42;10.40;;;4.93;;
63444;SDS011;49573;47.682;9.170;2022-10-04T02:39:29;9.18;;;4.75;;
63444;SDS011;49573;47.682;9.170;2022-10-04T02:42:20;8.45;;;4.22;;
63444;SDS011;49573;47.682;9.170;2022-10-04T02:45:17;7.10;;;4.53;;
63444;SDS011;49573;47.682;9.170;2022-10-04T02:48:10;10.75;;;4.75;;
63444;SDS011;49573;47.682;9.170;2022-10-04T02:50:59;10.52;;;4.80;;
63444;SDS011;49573;47.682;9.170;2022-10-04T02:53:49;6.90;;;4.50;;
63444;SDS011;49573;47.682;9.170;2022-10-04T02:56:36;6.32;;;4.50;;
63444;SDS011;49573;47.682;9.170;2022-10-04T02:59:23;10.63;;;5.80;;
63444;SDS011;49573;47.682;9.170;2022-10-04T03:02:19;9.32;;;4.35;;
63444;SDS011;49573;47.682;9.170;2022-10-04T03:05:08;7.60;;;4.25;;
63444;SDS011;49573;47.682;9.170;2022-10-04T03:07:55;6.50;;;4.40;;
63444;SDS011;49573;47.682;9.170;2022-10-04T03:13:29;10.98;;;4.85;;
63444;SDS011;49573;47.682;9.170;2022-10-04T03:16:16;12.85;;;4.63;;
63444;SDS011;49573;47.682;9.170;2022-10-04T03:19:03;9.02;;;4.40;;
63444;SDS011;49573;47.682;9.170;2022-10-04T03:21:51;8.95;;;4.60;;
63444;SDS011;49573;47.682;9.170;2022-10-04T03:24:42;7.93;;;4.80;;
63444;SDS011;49573;47.682;9.170;2022-10-04T03:27:33;9.18;;;4.90;;
63444;SDS011;49573;47.682;9.170;2022-10-04T03:30:20;7.47;;;4.80;;
63444;SDS011;49573;47.682;9.170;2022-10-04T03:33:06;8.05;;;4.45;;
63444;SDS011;49573;47.682;9.170;2022-10-04T03:35:53;8.30;;;5.22;;
63444;SDS011;49573;47.682;9.170;2022-10-04T03:38:42;9.25;;;4.25;;
63444;SDS011;49573;47.682;9.170;2022-10-04T03:41:28;6.75;;;4.30;;
63444;SDS011;49573;47.682;9.170;2022-10-04T03:44:15;6.88;;;4.32;;
63444;SDS011;49573;47.682;9.170;2022-10-04T03:47:06;6.82;;;4.30;;
63444;SDS011;49573;47.682;9.170;2022-10-04T03:49:53;11.52;;;4.82;;
63444;SDS011;49573;47.682;9.170;2022-10-04T03:52:42;8.02;;;5.00;;
63444;SDS011;49573;47.682;9.170;2022-10-04T03:55:31;9.95;;;5.07;;
63444;SDS011;49573;47.682;9.170;2022-10-04T03:58:18;7.82;;;4.80;;
63444;SDS011;49573;47.682;9.170;2022-10-04T04:01:10;8.02;;;5.35;;
63444;SDS011;49573;47.682;9.170;2022-10-04T04:04:00;8.57;;;5.20;;
63444;SDS011;49573;47.682;9.170;2022-10-04T04:06:50;8.35;;;5.28;;
63444;SDS011;49573;47.682;9.170;2022-10-04T04:09:38;12.88;;;5.57;;
63444;SDS011;49573;47.682;9.170;2022-10-04T04:12:30;7.65;;;4.82;;
63444;SDS011;49573;47.682;9.170;2022-10-04T04:15:20;9.18;;;5.45;;
63444;SDS011;49573;47.682;9.170;2022-10-04T04:18:10;9.35;;;5.30;;
63444;SDS011;49573;47.682;9.170;2022-10-04T04:20:59;9.73;;;5.63;;
63444;SDS011;49573;47.682;9.170;2022-10-04T04:23:47;10.10;;;5.45;;
63444;SDS011;49573;47.682;9.170;2022-10-04T04:26:35;9.80;;;5.43;;
63444;SDS011;49573;47.682;9.170;2022-10-04T04:29:29;11.25;;;6.28;;
63444;SDS011;49573;47.682;9.170;2022-10-04T04:32:17;8.80;;;5.07;;
63444;SDS011;49573;47.682;9.170;2022-10-04T04:35:05;11.73;;;5.65;;
63444;SDS011;49573;47.682;9.170;2022-10-04T04:38:13;10.85;;;5.28;;
63444;SDS011;49573;47.682;9.170;2022-10-04T04:41:05;8.03;;;5.23;;
63444;SDS011;49573;47.682;9.170;2022-10-04T04:43:52;12.00;;;5.30;;
63444;SDS011;49573;47.682;9.170;2022-10-04T04:46:40;9.18;;;5.50;;
63444;SDS011;49573;47.682;9.170;2022-10-04T04:49:29;10.73;;;5.68;;
63444;SDS011;49573;47.682;9.170;2022-10-04T04:52:15;10.27;;;5.40;;
63444;SDS011;49573;47.682;9.170;2022-10-04T04:57:49;8.55;;;4.97;;
63444;SDS011;49573;47.682;9.170;2022-10-04T05:00:40;10.77;;;5.43;;
63444;SDS011;49573;47.682;9.170;2022-10-04T05:03:27;12.50;;;5.65;;
63444;SDS011;49573;47.682;9.170;2022-10-04T05:06:20;12.15;;;5.72;;
63444;SDS011;49573;47.682;9.170;2022-10-04T05:09:19;8.45;;;5.22;;
63444;SDS011;49573;47.682;9.170;2022-10-04T05:12:09;8.68;;;5.22;;
63444;SDS011;49573;47.682;9.170;2022-10-04T05:15:00;9.15;;;5.65;;
63444;SDS011;49573;47.682;9.170;2022-10-04T05:17:46;11.43;;;6.32;;
63444;SDS011;49573;47.682;9.170;2022-10-04T05:20:33;12.73;;;5.50;;
63444;SDS011;49573;47.682;9.170;2022-10-04T05:23:19;11.38;;;6.30;;
63444;SDS011;49573;47.682;9.170;2022-10-04T05:26:08;10.27;;;6.53;;
63444;SDS011;49573;47.682;9.170;2022-10-04T05:29:05;9.93;;;5.63;;
63444;SDS011;49573;47.682;9.170;2022-10-04T05:31:56;10.55;;;5.53;;
63444;SDS011;49573;47.682;9.170;2022-10-04T05:34:49;10.82;;;5.20;;
63444;SDS011;49573;47.682;9.170;2022-10-04T05:37:42;7.17;;;5.00;;
63444;SDS011;49573;47.682;9.170;2022-10-04T05:40:38;8.35;;;4.95;;
63444;SDS011;49573;47.682;9.170;2022-10-04T05:43:31;8.82;;;5.63;;
63444;SDS011;49573;47.682;9.170;2022-10-04T05:46:22;9.13;;;5.40;;
63444;SDS011;49573;47.682;9.170;2022-10-04T05:49:10;11.25;;;5.38;;
63444;SDS011;49573;47.682;9.170;2022-10-04T05:51:59;12.52;;;6.05;;
63444;SDS011;49573;47.682;9.170;2022-10-04T05:54:49;10.90;;;5.38;;
63444;SDS011;49573;47.682;9.170;2022-10-04T05:58:20;12.60;;;5.60;;
63444;SDS011;49573;47.682;9.170;2022-10-04T06:01:22;14.32;;;6.63;;
63444;SDS011;49573;47.682;9.170;2022-10-04T06:04:29;11.45;;;6.55;;
63444;SDS011;49573;47.682;9.170;2022-10-04T06:07:24;11.82;;;6.80;;
63444;SDS011;49573;47.682;9.170;2022-10-04T06:10:28;12.30;;;7.85;;
63444;SDS011;49573;47.682;9.170;2022-10-04T06:13:51;11.57;;;7.28;;
63444;SDS011;49573;47.682;9.170;2022-10-04T06:17:04;11.77;;;7.15;;
63444;SDS011;49573;47.682;9.170;2022-10-04T06:20:13;15.02;;;8.70;;
63444;SDS011;49573;47.682;9.170;2022-10-04T06:23:25;11.57;;;6.63;;
63444;SDS011;49573;47.682;9.170;2022-10-04T06:26:17;11.25;;;6.40;;
63444;SDS011;49573;47.682;9.170;2022-10-04T06:29:09;12.13;;;7.22;;
63444;SDS011;49573;47.682;9.170;2022-10-04T06:32:03;15.30;;;7.30;;
63444;SDS011;49573;47.682;9.170;2022-10-04T06:35:07;15.80;;;7.15;;
63444;SDS011;49573;47.682;9.170;2022-10-04T06:45:05;17.52;;;8.10;;
63444;SDS011;49573;47.682;9.170;2022-10-04T06:48:17;21.40;;;11.93;;
63444;SDS011;49573;47.682;9.170;2022-10-04T06:51:22;21.52;;;11.90;;
63444;SDS011;49573;47.682;9.170;2022-10-04T06:54:24;17.67;;;9.27;;
63444;SDS011;49573;47.682;9.170;2022-10-04T06:57:30;17.92;;;9.27;;
63444;SDS011;49573;47.682;9.170;2022-10-04T07:00:29;16.45;;;8.85;;
63444;SDS011;49573;47.682;9.170;2022-10-04T07:03:25;16.08;;;8.32;;
63444;SDS011;49573;47.682;9.170;2022-10-04T07:06:20;21.08;;;10.15;;
63444;SDS011;49573;47.682;9.170;2022-10-04T07:09:13;17.48;;;9.88;;
63444;SDS011;49573;47.682;9.170;2022-10-04T07:12:03;17.38;;;8.98;;
63444;SDS011;49573;47.682;9.170;2022-10-04T07:14:55;13.73;;;9.00;;
63444;SDS011;49573;47.682;9.170;2022-10-04T07:17:46;15.93;;;8.13;;
63444;SDS011;49573;47.682;9.170;2022-10-04T07:20:34;14.75;;;7.55;;
63444;SDS011;49573;47.682;9.170;2022-10-04T07:23:22;15.02;;;9.02;;
63444;SDS011;49573;47.682;9.170;2022-10-04T07:26:15;13.68;;;8.50;;
63444;SDS011;49573;47.682;9.170;2022-10-04T07:29:11;16.23;;;8.27;;
63444;SDS011;49573;47.682;9.170;2022-10-04T07:32:07;14.15;;;8.00;;
63444;SDS011;49573;47.682;9.170;2022-10-04T07:35:00;12.93;;;7.97;;
63444;SDS011;49573;47.682;9.170;2022-10-04T07:37:52;15.57;;;8.48;;
63444;SDS011;49573;47.682;9.170;2022-10-04T07:40:57;13.68;;;8.07;;
63444;SDS011;49573;47.682;9.170;2022-10-04T07:43:48;14.55;;;7.45;;
63444;SDS011;49573;47.682;9.170;2022-10-04T07:46:44;14.30;;;7.50;;
63444;SDS011;49573;47.682;9.170;2022-10-04T07:49:36;15.73;;;8.27;;
63444;SDS011;49573;47.682;9.170;2022-10-04T07:52:31;17.58;;;8.18;;
63444;SDS011;49573;47.682;9.170;2022-10-04T07:55:31;16.40;;;8.88;;
63444;SDS011;49573;47.682;9.170;2022-10-04T07:58:30;16.42;;;7.72;;
63444;SDS011;49573;47.682;9.170;2022-10-04T08:01:25;16.50;;;8.52;;
63444;SDS011;49573;47.682;9.170;2022-10-04T08:04:21;16.10;;;8.00;;
63444;SDS011;49573;47.682;9.170;2022-10-04T08:07:16;24.70;;;8.52;;
63444;SDS011;49573;47.682;9.170;2022-10-04T08:10:12;13.25;;;8.18;;
63444;SDS011;49573;47.682;9.170;2022-10-04T08:13:04;21.23;;;9.15;;
63444;SDS011;49573;47.682;9.170;2022-10-04T08:16:00;18.23;;;9.03;;
63444;SDS011;49573;47.682;9.170;2022-10-04T08:18:57;15.10;;;7.97;;
63444;SDS011;49573;47.682;9.170;2022-10-04T08:21:57;17.08;;;8.50;;
63444;SDS011;49573;47.682;9.170;2022-10-04T08:24:52;14.98;;;8.30;;
63444;SDS011;49573;47.682;9.170;2022-10-04T08:27:52;12.25;;;7.18;;
63444;SDS011;49573;47.682;9.170;2022-10-04T08:31:06;14.43;;;8.15;;
63444;SDS011;49573;47.682;9.170;2022-10-04T08:34:14;15.98;;;8.70;;
63444;SDS011;49573;47.682;9.170;2022-10-04T08:37:16;15.32;;;8.13;;
63444;SDS011;49573;47.682;9.170;2022-10-04T08:40:22;12.00;;;7.38;;
63444;SDS011;49573;47.682;9.170;2022-10-04T08:50:47;13.75;;;8.15;;
63444;SDS011;49573;47.682;9.170;2022-10-04T08:57:32;16.02;;;8.55;;
63444;SDS011;49573;47.682;9.170;2022-10-04T09:07:41;12.05;;;7.55;;
63444;SDS011;49573;47.682;9.170;2022-10-04T09:10:57;9.70;;;6.90;;
63444;SDS011;49573;47.682;9.170;2022-10-04T09:14:06;13.82;;;7.70;;
63444;SDS011;49573;47.682;9.170;2022-10-04T09:17:14;13.23;;;7.03;;
63444;SDS011;49573;47.682;9.170;2022-10-04T09:20:09;15.48;;;7.55;;
63444;SDS011;49573;47.682;9.170;2022-10-04T09:23:17;12.88;;;7.00;;
63444;SDS011;49573;47.682;9.170;2022-10-04T09:26:21;13.77;;;7.18;;
63444;SDS011;49573;47.682;9.170;2022-10-04T09:29:19;13.55;;;7.15;;
63444;SDS011;49573;47.682;9.170;2022-10-04T09:32:32;10.43;;;6.50;;
63444;SDS011;49573;47.682;9.170;2022-10-04T09:39:14;11.20;;;6.55;;
63444;SDS011;49573;47.682;9.170;2022-10-04T09:42:33;11.38;;;6.60;;
63444;SDS011;49573;47.682;9.170;2022-10-04T09:45:48;9.73;;;6.53;;
63444;SDS011;49573;47.682;9.170;2022-10-04T09:48:51;11.60;;;6.32;;
63444;SDS011;49573;47.682;9.170;2022-10-04T09:58:47;10.02;;;6.78;;
63444;SDS011;49573;47.682;9.170;2022-10-04T10:02:08;10.93;;;6.15;;
63444;SDS011;49573;47.682;9.170;2022-10-04T10:05:26;11.38;;;6.20;;
63444;SDS011;49573;47.682;9.170;2022-10-04T10:08:34;10.02;;;6.03;;
63444;SDS011;49573;47.682;9.170;2022-10-04T10:11:29;13.50;;;5.85;;
63444;SDS011;49573;47.682;9.170;2022-10-04T10:14:52;9.98;;;5.88;;
63444;SDS011;49573;47.682;9.170;2022-10-04T10:17:49;10.32;;;5.90;;
63444;SDS011;49573;47.682;9.170;2022-10-04T10:20:59;9.40;;;5.65;;
63444;SDS011;49573;47.682;9.170;2022-10-04T10:24:17;12.02;;;6.22;;
63444;SDS011;49573;47.682;9.170;2022-10-04T10:27:17;10.52;;;5.82;;
63444;SDS011;49573;47.682;9.170;2022-10-04T10:30:24;8.63;;;5.00;;
63444;SDS011;49573;47.682;9.170;2022-10-04T10:36:27;9.77;;;6.05;;
63444;SDS011;49573;47.682;9.170;2022-10-04T10:39:32;8.82;;;5.90;;
63444;SDS011;49573;47.682;9.170;2022-10-04T10:42:47;11.88;;;5.88;;
63444;SDS011;49573;47.682;9.170;2022-10-04T10:45:42;12.07;;;6.03;;
63444;SDS011;49573;47.682;9.170;2022-10-04T10:48:41;11.77;;;6.90;;
63444;SDS011;49573;47.682;9.170;2022-10-04T10:51:50;9.43;;;6.10;;
63444;SDS011;49573;47.682;9.170;2022-10-04T10:55:15;10.80;;;6.18;;
63444;SDS011;49573;47.682;9.170;2022-10-04T10:58:45;11.25;;;6.45;;
63444;SDS011;49573;47.682;9.170;2022-10-04T11:02:06;12.52;;;7.13;;
63444;SDS011;49573;47.682;9.170;2022-10-04T11:05:17;11.90;;;6.43;;
63444;SDS011;49573;47.682;9.170;2022-10-04T11:08:30;10.27;;;6.70;;
63444;SDS011;49573;47.682;9.170;2022-10-04T11:11:36;9.70;;;6.63;;
63444;SDS011;49573;47.682;9.170;2022-10-04T11:14:47;12.20;;;7.05;;
63444;SDS011;49573;47.682;9.170;2022-10-04T11:18:24;11.68;;;6.40;;
63444;SDS011;49573;47.682;9.170;2022-10-04T11:21:51;12.43;;;7.15;;
63444;SDS011;49573;47.682;9.170;2022-10-04T11:25:16;11.27;;;6.80;;
63444;SDS011;49573;47.682;9.170;2022-10-04T11:28:12;10.60;;;6.57;;
63444;SDS011;49573;47.682;9.170;2022-10-04T11:31:22;10.65;;;6.60;;
63444;SDS011;49573;47.682;9.170;2022-10-04T11:34:36;11.00;;;7.30;;
63444;SDS011;49573;47.682;9.170;2022-10-04T11:37:51;12.48;;;6.85;;
63444;SDS011;49573;47.682;9.170;2022-10-04T11:40:50;10.70;;;6.57;;
63444;SDS011;49573;47.682;9.170;2022-10-04T11:44:04;8.63;;;6.22;;
63444;SDS011;49573;47.682;9.170;2022-10-04T11:47:27;13.80;;;7.53;;
63444;SDS011;49573;47.682;9.170;2022-10-04T11:50:35;13.68;;;6.93;;
63444;SDS011;49573;47.682;9.170;2022-10-04T11:53:37;11.95;;;6.38;;
63444;SDS011;49573;47.682;9.170;2022-10-04T11:56:49;10.75;;;7.25;;
63444;SDS011;49573;47.682;9.170;2022-10-04T11:59:54;10.88;;;7.07;;
63444;SDS011;49573;47.682;9.170;2022-10-04T12:03:00;13.13;;;7.30;;
63444;SDS011;49573;47.682;9.170;2022-10-04T12:06:07;12.07;;;6.57;;
63444;SDS011;49573;47.682;9.170;2022-10-04T12:09:04;9.60;;;6.70;;
63444;SDS011;49573;47.682;9.170;2022-10-04T12:12:06;9.32;;;5.72;;
63444;SDS011;49573;47.682;9.170;2022-10-04T12:15:27;10.73;;;6.60;;
63444;SDS011;49573;47.682;9.170;2022-10-04T12:18:30;9.52;;;6.43;;
63444;SDS011;49573;47.682;9.170;2022-10-04T12:21:49;7.22;;;4.88;;
63444;SDS011;49573;47.682;9.170;2022-10-04T12:31:22;9.43;;;5.13;;
63444;SDS011;49573;47.682;9.170;2022-10-04T12:34:15;9.68;;;5.60;;
63444;SDS011;49573;47.682;9.170;2022-10-04T12:37:13;11.48;;;7.40;;
63444;SDS011;49573;47.682;9.170;2022-10-04T12:40:22;10.95;;;6.55;;
63444;SDS011;49573;47.682;9.170;2022-10-04T12:43:15;11.07;;;7.00;;
63444;SDS011;49573;47.682;9.170;2022-10-04T12:46:10;11.57;;;6.88;;
63444;SDS011;49573;47.682;9.170;2022-10-04T12:49:14;10.35;;;7.38;;
63444;SDS011;49573;47.682;9.170;2022-10-04T12:52:10;13.75;;;7.20;;
63444;SDS011;49573;47.682;9.170;2022-10-04T12:55:08;11.63;;;6.60;;
63444;SDS011;49573;47.682;9.170;2022-10-04T12:58:05;10.93;;;6.18;;
63444;SDS011;49573;47.682;9.170;2022-10-04T13:00:58;11.48;;;6.75;;
63444;SDS011;49573;47.682;9.170;2022-10-04T13:04:06;10.23;;;6.40;;
63444;SDS011;49573;47.682;9.170;2022-10-04T13:07:18;8.95;;;5.95;;
63444;SDS011;49573;47.682;9.170;2022-10-04T13:10:22;10.52;;;6.20;;
63444;SDS011;49573;47.682;9.170;2022-10-04T13:13:41;11.73;;;5.78;;
63444;SDS011;49573;47.682;9.170;2022-10-04T13:19:30;8.88;;;5.85;;
63444;SDS011;49573;47.682;9.170;2022-10-04T13:22:40;8.82;;;6.53;;
63444;SDS011;49573;47.682;9.170;2022-10-04T13:25:35;9.50;;;5.82;;
63444;SDS011;49573;47.682;9.170;2022-10-04T13:28:47;9.70;;;6.28;;
63444;SDS011;49573;47.682;9.170;2022-10-04T13:31:37;8.52;;;6.05;;
63444;SDS011;49573;47.682;9.170;2022-10-04T13:34:32;8.35;;;5.95;;
63444;SDS011;49573;47.682;9.170;2022-10-04T13:37:25;9.55;;;6.20;;
63444;SDS011;49573;47.682;9.170;2022-10-04T13:40:36;10.43;;;6.90;;
63444;SDS011;49573;47.682;9.170;2022-10-04T13:46:52;7.70;;;5.72;;
63444;SDS011;49573;47.682;9.170;2022-10-04T13:49:47;9.20;;;6.20;;
63444;SDS011;49573;47.682;9.170;2022-10-04T13:52:38;7.70;;;5.60;;
63444;SDS011;49573;47.682;9.170;2022-10-04T13:55:53;8.07;;;6.05;;
63444;SDS011;49573;47.682;9.170;2022-10-04T13:59:06;6.93;;;6.22;;
63444;SDS011;49573;47.682;9.170;2022-10-04T14:02:07;7.47;;;5.65;;
63444;SDS011;49573;47.682;9.170;2022-10-04T14:05:15;8.50;;;6.82;;
63444;SDS011;49573;47.682;9.170;2022-10-04T14:08:37;6.70;;;6.00;;
63444;SDS011;49573;47.682;9.170;2022-10-04T14:11:42;7.55;;;6.05;;
63444;SDS011;49573;47.682;9.170;2022-10-04T14:18:01;6.93;;;5.50;;
63444;SDS011;49573;47.682;9.170;2022-10-04T14:21:28;8.48;;;6.18;;
63444;SDS011;49573;47.682;9.170;2022-10-04T14:27:43;7.53;;;6.22;;
63444;SDS011;49573;47.682;9.170;2022-10-04T14:30:35;6.78;;;6.07;;
63444;SDS011;49573;47.682;9.170;2022-10-04T14:33:30;7.45;;;5.03;;
63444;SDS011;49573;47.682;9.170;2022-10-04T14:39:43;8.25;;;5.80;;
63444;SDS011;49573;47.682;9.170;2022-10-04T14:42:39;7.68;;;5.07;;
63444;SDS011;49573;47.682;9.170;2022-10-04T14:45:35;9.75;;;5.32;;
63444;SDS011;49573;47.682;9.170;2022-10-04T14:51:45;5.43;;;4.82;;
63444;SDS011;49573;47.682;9.170;2022-10-04T14:54:37;5.68;;;4.93;;
63444;SDS011;49573;47.682;9.170;2022-10-04T14:57:36;6.38;;;5.05;;
63444;SDS011;49573;47.682;9.170;2022-10-04T15:00:28;8.88;;;5.20;;
63444;SDS011;49573;47.682;9.170;2022-10-04T15:03:25;5.63;;;4.80;;
63444;SDS011;49573;47.682;9.170;2022-10-04T15:06:22;7.63;;;5.43;;
63444;SDS011;49573;47.682;9.170;2022-10-04T15:09:23;6.63;;;4.68;;
63444;SDS011;49573;47.682;9.170;2022-10-04T15:15:24;7.25;;;4.88;;
63444;SDS011;49573;47.682;9.170;2022-10-04T15:18:21;8.10;;;5.28;;
63444;SDS011;49573;47.682;9.170;2022-10-04T15:21:28;7.25;;;5.03;;
63444;SDS011;49573;47.682;9.170;2022-10-04T15:24:23;6.95;;;4.90;;
63444;SDS011;49573;47.682;9.170;2022-10-04T15:27:24;8.70;;;5.50;;
63444;SDS011;49573;47.682;9.170;2022-10-04T15:30:16;5.93;;;4.70;;
63444;SDS011;49573;47.682;9.170;2022-10-04T15:33:15;6.60;;;5.47;;
63444;SDS011;49573;47.682;9.170;2022-10-04T15:36:28;7.68;;;4.80;;
63444;SDS011;49573;47.682;9.170;2022-10-04T15:39:27;7.90;;;5.22;;
63444;SDS011;49573;47.682;9.170;2022-10-04T15:42:20;5.30;;;4.80;;
63444;SDS011;49573;47.682;9.170;2022-10-04T15:45:21;7.10;;;3.88;;
63444;SDS011;49573;47.682;9.170;2022-10-04T15:48:11;4.70;;;3.55;;
63444;SDS011;49573;47.682;9.170;2022-10-04T15:51:09;7.32;;;4.03;;
63444;SDS011;49573;47.682;9.170;2022-10-04T15:54:07;4.72;;;3.42;;
63444;SDS011;49573;47.682;9.170;2022-10-04T15:59:44;4.90;;;3.45;;
63444;SDS011;49573;47.682;9.170;2022-10-04T16:05:35;5.95;;;3.75;;
63444;SDS011;49573;47.682;9.170;2022-10-04T16:08:36;4.72;;;3.70;;
63444;SDS011;49573;47.682;9.170;2022-10-04T16:11:36;5.75;;;3.65;;
63444;SDS011;49573;47.682;9.170;2022-10-04T16:14:59;7.00;;;3.50;;
63444;SDS011;49573;47.682;9.170;2022-10-04T16:17:55;6.07;;;3.57;;
63444;SDS011;49573;47.682;9.170;2022-10-04T16:20:52;6.90;;;3.78;;
63444;SDS011;49573;47.682;9.170;2022-10-04T16:24:25;6.10;;;3.58;;
63444;SDS011;49573;47.682;9.170;2022-10-04T16:27:18;4.90;;;3.70;;
63444;SDS011;49573;47.682;9.170;2022-10-04T16:30:23;5.47;;;3.33;;
63444;SDS011;49573;47.682;9.170;2022-10-04T16:33:23;5.43;;;3.70;;
63444;SDS011;49573;47.682;9.170;2022-10-04T16:36:15;6.65;;;4.22;;
63444;SDS011;49573;47.682;9.170;2022-10-04T16:39:07;5.45;;;3.88;;
63444;SDS011;49573;47.682;9.170;2022-10-04T16:42:13;4.53;;;3.50;;
63444;SDS011;49573;47.682;9.170;2022-10-04T16:45:31;10.23;;;4.13;;
63444;SDS011;49573;47.682;9.170;2022-10-04T16:48:25;7.20;;;4.00;;
63444;SDS011;49573;47.682;9.170;2022-10-04T16:51:24;7.20;;;4.30;;
63444;SDS011;49573;47.682;9.170;2022-10-04T16:54:38;5.60;;;4.07;;
63444;SDS011;49573;47.682;9.170;2022-10-04T16:57:39;6.20;;;4.57;;
63444;SDS011;49573;47.682;9.170;2022-10-04T17:00:33;8.10;;;4.35;;
63444;SDS011;49573;47.682;9.170;2022-10-04T17:03:21;4.97;;;3.78;;
63444;SDS011;49573;47.682;9.170;2022-10-04T17:06:14;8.73;;;4.10;;
63444;SDS011;49573;47.682;9.170;2022-10-04T17:09:07;7.50;;;3.97;;
63444;SDS011;49573;47.682;9.170;2022-10-04T17:12:09;11.65;;;3.97;;
63444;SDS011;49573;47.682;9.170;2022-10-04T17:15:18;6.15;;;4.07;;
63444;SDS011;49573;47.682;9.170;2022-10-04T17:18:25;5.80;;;3.90;;
63444;SDS011;49573;47.682;9.170;2022-10-04T17:21:23;7.53;;;4.38;;
63444;SDS011;49573;47.682;9.170;2022-10-04T17:24:17;7.28;;;4.30;;
63444;SDS011;49573;47.682;9.170;2022-10-04T17:27:16;7.05;;;4.28;;
63444;SDS011;49573;47.682;9.170;2022-10-04T17:30:12;6.22;;;4.25;;
63444;SDS011;49573;47.682;9.170;2022-10-04T17:33:05;8.13;;;4.07;;
63444;SDS011;49573;47.682;9.170;2022-10-04T17:36:10;9.25;;;3.80;;
63444;SDS011;49573;47.682;9.170;2022-10-04T17:39:14;7.80;;;3.88;;
63444;SDS011;49573;47.682;9.170;2022-10-04T17:45:20;8.63;;;4.53;;
63444;SDS011;49573;47.682;9.170;2022-10-04T17:48:20;9.80;;;4.70;;
63444;SDS011;49573;47.682;9.170;2022-10-04T17:54:41;5.65;;;3.90;;
63444;SDS011;49573;47.682;9.170;2022-10-04T17:57:49;7.97;;;3.83;;
63444;SDS011;49573;47.682;9.170;2022-10-04T18:00:48;8.75;;;4.05;;
63444;SDS011;49573;47.682;9.170;2022-10-04T18:03:44;8.88;;;4.00;;
63444;SDS011;49573;47.682;9.170;2022-10-04T18:06:35;7.20;;;3.90;;
63444;SDS011;49573;47.682;9.170;2022-10-04T18:09:26;12.18;;;4.00;;
63444;SDS011;49573;47.682;9.170;2022-10-04T18:12:23;6.45;;;4.00;;
63444;SDS011;49573;47.682;9.170;2022-10-04T18:15:15;9.73;;;3.97;;
63444;SDS011;49573;47.682;9.170;2022-10-04T18:18:07;10.15;;;4.75;;
63444;SDS011;49573;47.682;9.170;2022-10-04T18:21:02;6.07;;;3.70;;
63444;SDS011;49573;47.682;9.170;2022-10-04T18:23:53;5.80;;;4.10;;
63444;SDS011;49573;47.682;9.170;2022-10-04T18:26:52;6.90;;;4.07;;
63444;SDS011;49573;47.682;9.170;2022-10-04T18:29:42;10.27;;;4.65;;
63444;SDS011;49573;47.682;9.170;2022-10-04T18:32:42;8.90;;;4.57;;
63444;SDS011;49573;47.682;9.170;2022-10-04T18:35:32;6.88;;;4.78;;
63444;SDS011;49573;47.682;9.170;2022-10-04T18:38:20;8.50;;;5.18;;
63444;SDS011;49573;47.682;9.170;2022-10-04T18:41:17;7.72;;;5.18;;
63444;SDS011;49573;47.682;9.170;2022-10-04T18:44:11;10.05;;;5.47;;
63444;SDS011;49573;47.682;9.170;2022-10-04T18:46:59;9.60;;;5.47;;
63444;SDS011;49573;47.682;9.170;2022-10-04T18:49:47;8.63;;;5.43;;
63444;SDS011;49573;47.682;9.170;2022-10-04T18:52:40;9.07;;;5.30;;
63444;SDS011;49573;47.682;9.170;2022-10-04T18:55:37;12.80;;;5.20;;
63444;SDS011;49573;47.682;9.170;2022-10-04T19:02:08;6.78;;;4.85;;
63444;SDS011;49573;47.682;9.170;2022-10-04T19:05:04;7.00;;;4.68;;
63444;SDS011;49573;47.682;9.170;2022-10-04T19:08:00;8.93;;;5.25;;
63444;SDS011;49573;47.682;9.170;2022-10-04T19:10:55;8.43;;;5.15;;
63444;SDS011;49573;47.682;9.170;2022-10-04T19:13:48;8.02;;;4.80;;
63444;SDS011;49573;47.682;9.170;2022-10-04T19:16:41;7.45;;;4.53;;
63444;SDS011;49573;47.682;9.170;2022-10-04T19:19:35;8.40;;;5.25;;
63444;SDS011;49573;47.682;9.170;2022-10-04T19:22:28;9.80;;;5.22;;
63444;SDS011;49573;47.682;9.170;2022-10-04T19:25:23;16.80;;;4.88;;